Time;durP1;ratioP1;P1;durP2;ratioP2;P2;SDS_P1;SDS_P2;PMS_P1;PMS_P2;Temp;Humidity;BMP_temperature;BMP_pressure;BME280_temperature;BME280_humidity;BME280_pressure;Samples;Min_cycle;Max_cycle;Signal;HPM_P1;HPM_P2
2021/06/02 00:01:29;;;;;;;4.45;2.90;;;;;;;21.43;63.72;99800.81;5038379;28;20120;-74
2021/06/02 00:03:55;;;;;;;7.07;3.92;;;;;;;21.41;64.73;99801.19;5025792;28;20043;-75
2021/06/02 00:06:25;;;;;;;5.00;3.20;;;;;;;21.40;64.80;99807.25;5022684;28;20040;-75
2021/06/02 00:08:52;;;;;;;5.18;3.00;;;;;;;21.35;64.82;99807.53;5011867;28;20037;-75
2021/06/02 00:11:17;;;;;;;4.43;3.28;;;;;;;21.32;65.05;99802.66;5019708;28;20041;-75
2021/06/02 00:13:43;;;;;;;7.47;3.33;;;;;;;21.29;64.43;99801.41;5024283;28;20500;-75
2021/06/02 00:16:08;;;;;;;5.35;3.30;;;;;;;21.27;64.94;99794.53;5047881;28;20033;-75
2021/06/02 00:18:33;;;;;;;5.60;3.28;;;;;;;21.24;63.79;99800.94;5047937;28;20041;-75
2021/06/02 00:20:59;;;;;;;7.95;3.20;;;;;;;21.22;63.27;99792.84;5024394;28;20091;-74
2021/06/02 00:23:25;;;;;;;3.88;2.78;;;;;;;21.19;63.12;99782.31;5020747;28;20033;-75
2021/06/02 00:25:50;;;;;;;6.13;3.03;;;;;;;21.17;63.94;99776.22;5039316;28;20441;-74
2021/06/02 00:28:16;;;;;;;5.50;3.05;;;;;;;21.15;64.90;99787.94;5039623;28;20029;-74
2021/06/02 00:30:44;;;;;;;3.95;2.70;;;;;;;21.12;64.56;99783.06;5046458;28;20032;-74
2021/06/02 00:33:09;;;;;;;3.53;2.65;;;;;;;21.07;63.94;99769.25;5022507;28;20029;-75
2021/06/02 00:35:35;;;;;;;4.18;2.85;;;;;;;21.02;63.21;99780.09;5052186;28;20036;-74
2021/06/02 00:38:00;;;;;;;3.53;2.97;;;;;;;20.97;63.90;99779.19;5037160;28;20049;-75
2021/06/02 00:40:45;;;;;;;3.63;2.83;;;;;;;20.97;63.85;99779.19;5036006;28;20030;-74
2021/06/02 00:43:14;;;;;;;6.38;2.85;;;;;;;20.93;63.82;99772.72;5050876;28;20029;-74
2021/06/02 00:45:39;;;;;;;4.97;3.13;;;;;;;20.94;64.56;99776.34;5023778;28;20029;-74
2021/06/02 00:48:05;;;;;;;7.20;3.00;;;;;;;20.93;65.92;99781.19;5044636;28;20025;-74
2021/06/02 00:50:30;;;;;;;4.32;3.10;;;;;;;20.90;64.69;99775.50;5044056;28;20029;-74
2021/06/02 00:52:56;;;;;;;3.45;2.78;;;;;;;20.86;64.52;99769.78;5038931;28;20502;-75
2021/06/02 00:55:21;;;;;;;3.53;2.70;;;;;;;20.87;63.98;99770.63;5018704;28;20028;-74
2021/06/02 00:57:48;;;;;;;3.80;2.70;;;;;;;20.82;64.40;99768.91;5022518;28;20036;-74
2021/06/02 01:00:15;;;;;;;6.65;3.30;;;;;;;20.82;65.58;99768.13;5046013;28;20033;-74
2021/06/02 01:02:41;;;;;;;3.65;2.63;;;;;;;20.82;65.64;99765.28;5042106;28;20022;-74
2021/06/02 01:05:07;;;;;;;7.85;3.20;;;;;;;20.81;65.24;99772.13;5023307;28;20048;-74
2021/06/02 01:07:34;;;;;;;6.97;3.17;;;;;;;20.80;65.90;99773.31;5035793;28;20034;-74
2021/06/02 01:10:00;;;;;;;4.55;3.00;;;;;;;20.74;65.81;99775.66;5022625;28;20032;-74
2021/06/02 01:12:27;;;;;;;4.15;2.75;;;;;;;20.73;65.63;99772.03;5037606;28;20017;-74
2021/06/02 01:14:53;;;;;;;3.38;2.72;;;;;;;20.70;65.59;99766.34;5037798;28;20078;-74
2021/06/02 01:17:21;;;;;;;3.88;3.05;;;;;;;20.69;66.33;99775.97;5016841;28;20025;-74
2021/06/02 01:19:47;;;;;;;3.47;2.78;;;;;;;20.68;65.48;99775.16;5035354;28;20029;-74
2021/06/02 01:22:13;;;;;;;6.05;2.70;;;;;;;20.67;65.21;99773.56;5022268;28;20128;-74
2021/06/02 01:24:39;;;;;;;3.88;3.13;;;;;;;20.69;66.75;99775.97;5019051;28;20033;-74
2021/06/02 01:27:06;;;;;;;3.83;2.90;;;;;;;20.67;66.40;99773.56;5028411;28;20040;-74
2021/06/02 01:29:32;;;;;;;5.88;3.25;;;;;;;20.64;64.75;99773.47;5038470;28;20056;-74
2021/06/02 01:32:22;;;;;;;3.85;3.20;;;;;;;20.59;65.83;99771.81;5018111;28;20111;-74
2021/06/02 01:35:25;;;;;;;3.58;3.08;;;;;;;20.58;66.06;99777.81;5052310;28;20029;-75
2021/06/02 01:38:26;;;;;;;3.63;2.60;;;;;;;20.55;65.18;99770.94;5063703;28;20060;-75
2021/06/02 01:41:29;;;;;;;3.67;2.95;;;;;;;20.57;65.87;99764.94;5063518;28;20048;-75
2021/06/02 01:44:32;;;;;;;5.93;3.53;;;;;;;20.49;65.60;99761.16;5082401;28;20025;-75
2021/06/02 01:47:25;;;;;;;5.00;3.00;;;;;;;20.52;65.41;99766.03;5104955;28;20036;-75
2021/06/02 01:50:00;;;;;;;3.88;3.38;;;;;;;20.47;66.86;99764.34;5083817;28;20496;-75
2021/06/02 01:52:58;;;;;;;4.35;2.97;;;;;;;20.44;65.71;99775.56;5065299;28;20028;-75
2021/06/02 01:55:38;;;;;;;3.45;2.92;;;;;;;20.40;66.39;99781.16;5081010;28;20039;-75
2021/06/02 01:58:39;;;;;;;4.28;2.97;;;;;;;20.41;66.44;99781.97;5092493;28;20028;-75
2021/06/02 02:01:35;;;;;;;4.10;3.30;;;;;;;20.41;66.32;99776.31;5057799;28;20396;-75
2021/06/02 02:04:19;;;;;;;3.85;2.88;;;;;;;20.35;65.63;99783.47;5086277;28;20023;-75
2021/06/02 02:07:00;;;;;;;4.47;3.20;;;;;;;20.28;67.82;99785.00;5080700;28;20039;-74
2021/06/02 02:10:03;;;;;;;4.30;3.22;;;;;;;20.27;65.99;99777.72;5068541;28;20029;-74
2021/06/02 02:12:59;;;;;;;4.40;3.40;;;;;;;20.21;67.64;99779.22;5099629;28;20114;-74
2021/06/02 02:15:48;;;;;;;3.97;3.10;;;;;;;20.18;66.78;99777.16;5068886;28;20053;-74
2021/06/02 02:18:38;;;;;;;4.18;3.30;;;;;;;20.16;67.23;99787.19;5089937;28;20107;-74
2021/06/02 02:21:36;;;;;;;5.93;3.38;;;;;;;20.16;68.14;99790.81;5083332;28;20066;-74
2021/06/02 02:24:11;;;;;;;5.00;3.50;;;;;;;20.17;68.90;99800.91;5037466;28;20046;-74
2021/06/02 02:27:13;;;;;;;6.22;3.22;;;;;;;20.14;68.98;99800.84;5093795;28;20108;-74
2021/06/02 02:29:55;;;;;;;5.20;3.05;;;;;;;20.09;68.95;99793.53;5096238;28;20036;-74
2021/06/02 02:32:56;;;;;;;4.10;3.10;;;;;;;20.07;69.59;99791.06;5083076;28;20060;-74
2021/06/02 02:35:57;;;;;;;3.83;2.70;;;;;;;20.05;69.28;99787.81;5072993;28;20063;-74
2021/06/02 02:38:30;;;;;;;3.85;3.22;;;;;;;20.04;68.75;99785.38;5061071;28;20040;-74
2021/06/02 02:41:09;;;;;;;3.25;2.55;;;;;;;20.00;69.66;99790.13;5061880;28;20033;-73
2021/06/02 02:43:38;;;;;;;4.03;2.75;;;;;;;19.98;69.93;99792.53;5091281;28;20531;-73
2021/06/02 02:46:31;;;;;;;4.43;2.97;;;;;;;20.00;69.77;99790.13;5100228;28;20036;-74
2021/06/02 02:49:34;;;;;;;6.55;2.90;;;;;;;19.99;69.88;99788.50;5065516;28;20107;-74
2021/06/02 02:52:32;;;;;;;4.15;2.40;;;;;;;19.98;69.54;99781.25;5065708;28;21616;-73
2021/06/02 02:55:10;;;;;;;5.05;2.60;;;;;;;19.98;69.65;99776.44;5081209;28;20041;-73
2021/06/02 02:57:44;;;;;;;4.28;3.33;;;;;;;19.96;69.32;99784.44;5071328;28;20033;-73
2021/06/02 03:00:12;;;;;;;7.03;3.28;;;;;;;19.96;69.74;99789.25;5077718;28;20035;-74
2021/06/02 03:02:48;;;;;;;5.00;3.22;;;;;;;19.94;69.19;99774.72;5066145;28;20039;-74
2021/06/02 03:05:16;;;;;;;5.82;2.85;;;;;;;19.92;70.28;99779.91;5108322;27;20027;-74
2021/06/02 03:07:45;;;;;;;4.97;3.13;;;;;;;19.92;69.97;99779.91;5054058;28;20560;-74
2021/06/02 03:10:15;;;;;;;4.90;2.78;;;;;;;19.91;69.13;99781.91;5051503;28;20087;-74
2021/06/02 03:12:56;;;;;;;5.40;3.10;;;;;;;19.92;70.43;99782.72;5034649;28;20118;-74
2021/06/02 03:15:44;;;;;;;5.93;3.40;;;;;;;19.90;70.46;99779.50;5100712;28;20068;-74
2021/06/02 03:18:26;;;;;;;5.18;2.97;;;;;;;19.90;69.81;99773.84;5070736;28;20028;-77
2021/06/02 03:20:57;;;;;;;5.25;3.63;;;;;;;19.83;71.62;99774.53;5054811;28;20036;-74
2021/06/02 03:23:47;;;;;;;4.75;3.30;;;;;;;19.81;69.42;99766.47;5064772;28;20027;-74
2021/06/02 03:26:25;;;;;;;5.47;3.50;;;;;;;19.85;69.02;99758.88;5091020;28;20028;-74
2021/06/02 03:29:07;;;;;;;4.53;2.95;;;;;;;19.81;69.90;99755.19;5036469;28;20488;-74
2021/06/02 03:31:48;;;;;;;4.30;3.05;;;;;;;19.79;69.22;99751.94;5066606;28;20046;-74
2021/06/02 03:34:25;;;;;;;4.03;2.90;;;;;;;19.80;70.28;99750.72;5082376;28;20028;-74
2021/06/02 03:37:03;;;;;;;5.47;3.20;;;;;;;19.80;70.52;99753.53;5120304;27;20035;-74
2021/06/02 03:39:48;;;;;;;3.90;3.20;;;;;;;19.78;69.64;99749.47;5089481;28;20081;-73
2021/06/02 03:42:42;;;;;;;4.75;3.08;;;;;;;19.76;69.85;99758.31;5099403;28;20499;-73
2021/06/02 03:45:29;;;;;;;5.90;3.65;;;;;;;19.74;70.24;99749.41;5087324;28;20057;-74
2021/06/02 03:48:16;;;;;;;5.10;4.10;;;;;;;19.72;70.24;99757.41;5081019;28;20046;-74
2021/06/02 03:50:59;;;;;;;7.43;3.92;;;;;;;19.70;69.72;99759.00;5090719;28;20036;-73
2021/06/02 03:53:43;;;;;;;7.43;4.15;;;;;;;19.64;69.25;99762.09;5068381;28;20095;-73
2021/06/02 03:56:24;;;;;;;6.00;3.60;;;;;;;19.66;69.91;99758.91;5098204;28;20406;-74
2021/06/02 03:59:06;;;;;;;5.07;3.70;;;;;;;19.63;70.17;99776.53;5049244;28;20024;-73
2021/06/02 04:01:50;;;;;;;5.10;3.60;;;;;;;19.60;69.71;99778.09;5080073;28;20031;-73
2021/06/02 04:04:40;;;;;;;4.82;3.65;;;;;;;19.62;70.83;99791.81;5100075;28;20059;-74
2021/06/02 04:07:11;;;;;;;5.68;3.15;;;;;;;19.59;70.33;99793.38;5068013;28;20444;-74
2021/06/02 04:09:42;;;;;;;5.50;3.85;;;;;;;19.60;70.20;99794.19;5037513;28;20028;-74
2021/06/02 04:12:17;;;;;;;3.58;3.20;;;;;;;19.61;70.30;99798.63;5084735;28;20081;-74
2021/06/02 04:15:04;;;;;;;4.97;3.50;;;;;;;19.61;70.67;99795.81;5080054;28;20362;-74
2021/06/02 04:17:30;;;;;;;5.90;3.63;;;;;;;19.57;70.21;99795.75;5075815;28;20487;-74
2021/06/02 04:19:55;;;;;;;5.10;3.33;;;;;;;19.54;69.98;99802.13;5036729;28;20031;-74
2021/06/02 04:22:22;;;;;;;6.63;3.38;;;;;;;19.55;70.35;99798.09;5047691;28;20024;-74
2021/06/02 04:24:48;;;;;;;5.55;3.53;;;;;;;19.55;71.00;99797.31;5050674;28;20036;-74
2021/06/02 04:27:15;;;;;;;5.07;3.17;;;;;;;19.52;70.31;99798.03;5048584;28;20024;-74
2021/06/02 04:29:48;;;;;;;5.57;3.40;;;;;;;19.50;71.25;99806.03;5079311;28;20027;-74
2021/06/02 04:32:13;;;;;;;6.82;3.58;;;;;;;19.49;70.09;99802.41;5087511;28;20472;-74
2021/06/02 04:34:39;;;;;;;4.63;3.30;;;;;;;19.49;71.45;99798.78;5068631;28;20032;-75
2021/06/02 04:37:08;;;;;;;5.18;3.28;;;;;;;19.46;70.05;99802.34;5048864;28;20032;-74
2021/06/02 04:39:37;;;;;;;4.47;3.20;;;;;;;19.41;71.00;99803.47;5063035;28;20408;-74
2021/06/02 04:42:03;;;;;;;5.60;4.10;;;;;;;19.43;71.24;99804.72;5096532;28;20031;-74
2021/06/02 04:44:29;;;;;;;5.88;3.60;;;;;;;19.41;71.46;99809.09;5045244;28;20031;-74
2021/06/02 04:46:55;;;;;;;5.20;4.00;;;;;;;19.41;70.88;99812.72;5063580;28;20066;-74
2021/06/02 04:49:23;;;;;;;6.32;3.90;;;;;;;19.39;70.86;99812.28;5069140;28;20031;-75
2021/06/02 04:52:01;;;;;;;4.80;3.53;;;;;;;19.37;71.31;99814.66;5029362;28;20070;-74
2021/06/02 04:54:48;;;;;;;5.53;3.85;;;;;;;19.37;71.17;99809.03;5081554;28;20035;-74
2021/06/02 04:57:26;;;;;;;4.95;3.80;;;;;;;19.36;71.28;99820.66;5068566;28;20031;-74
2021/06/02 05:00:19;;;;;;;6.38;3.67;;;;;;;19.37;70.89;99819.47;5083205;28;20388;-75
2021/06/02 05:03:08;;;;;;;4.57;3.38;;;;;;;19.34;71.56;99821.03;5084025;28;20028;-76
2021/06/02 05:05:55;;;;;;;5.85;4.10;;;;;;;19.36;72.22;99815.00;5100488;28;20031;-74
2021/06/02 05:08:45;;;;;;;5.90;4.00;;;;;;;19.37;71.83;99830.75;5056382;28;20036;-74
2021/06/02 05:11:11;;;;;;;8.25;4.20;;;;;;;19.36;72.60;99835.56;5082552;28;20392;-74
2021/06/02 05:14:14;;;;;;;9.60;4.55;;;;;;;19.38;72.07;99838.00;5069712;28;20024;-74
2021/06/02 05:17:04;;;;;;;5.60;4.28;;;;;;;19.38;72.91;99838.78;5064138;28;20027;-74
2021/06/02 05:22:51;;;;;;;4.90;3.70;;;;;;;19.45;73.47;99826.09;5101826;28;20024;-74
2021/06/02 05:25:54;;;;;;;5.78;4.13;;;;;;;19.49;73.42;99832.59;5099157;28;20028;-74
2021/06/02 05:28:38;;;;;;;8.35;4.30;;;;;;;19.52;73.53;99824.19;5081683;28;20059;-74
2021/06/02 05:31:22;;;;;;;5.97;4.20;;;;;;;19.57;73.73;99829.53;5084083;28;20032;-74
2021/06/02 05:34:19;;;;;;;8.40;4.50;;;;;;;19.62;74.07;99820.00;5113193;27;20484;-74
2021/06/02 05:37:30;;;;;;;5.35;4.22;;;;;;;19.69;74.58;99822.16;5099294;28;20054;-74
2021/06/02 05:40:22;;;;;;;6.38;3.95;;;;;;;19.77;74.18;99832.38;5055286;28;20089;-74
2021/06/02 05:43:15;;;;;;;7.25;4.03;;;;;;;19.85;73.72;99825.69;5069195;28;20040;-73
2021/06/02 05:46:04;;;;;;;7.28;3.80;;;;;;;19.98;72.73;99820.72;5068134;28;20134;-72
2021/06/02 05:48:32;;;;;;;9.13;4.68;;;;;;;20.07;72.93;99824.09;5075275;28;20066;-73
2021/06/02 05:51:40;;;;;;;8.77;4.20;;;;;;;20.20;73.17;99828.34;5085304;28;20031;-72
2021/06/02 05:54:18;;;;;;;7.05;3.95;;;;;;;20.29;71.80;99831.72;5062404;28;20062;-72
2021/06/02 05:57:13;;;;;;;7.47;3.85;;;;;;;20.39;71.55;99835.91;5068665;28;20047;-71
2021/06/02 06:00:22;;;;;;;9.02;4.88;;;;;;;20.51;70.54;99835.72;5063588;28;20028;-71
2021/06/02 06:03:12;;;;;;;8.05;4.10;;;;;;;20.59;69.83;99836.69;5077381;28;20036;-72
2021/06/02 06:05:59;;;;;;;7.07;4.35;;;;;;;20.69;70.87;99840.88;5093555;28;20115;-71
2021/06/02 06:08:58;;;;;;;6.45;4.10;;;;;;;20.73;70.56;99845.38;5056368;28;20031;-72
2021/06/02 06:11:42;;;;;;;6.28;4.18;;;;;;;20.83;71.58;99845.94;5085004;28;20033;-72
2021/06/02 06:14:30;;;;;;;6.80;4.53;;;;;;;20.87;71.13;99844.00;5100908;28;20102;-73
2021/06/02 06:17:47;;;;;;;6.60;4.28;;;;;;;20.92;70.87;99846.47;5044498;28;20043;-72
2021/06/02 06:20:18;;;;;;;6.45;4.40;;;;;;;20.96;71.70;99845.31;5019913;28;20040;-78
2021/06/02 06:22:59;;;;;;;9.10;4.45;;;;;;;20.99;71.98;99852.22;5069664;28;20023;-78
2021/06/02 06:25:34;;;;;;;9.23;4.20;;;;;;;21.03;72.24;99849.44;5082105;28;20038;-78
2021/06/02 06:28:17;;;;;;;9.38;3.95;;;;;;;21.04;72.15;99846.25;5075935;28;20036;-78
2021/06/02 06:30:45;;;;;;;5.43;3.60;;;;;;;21.07;71.93;99847.50;5083189;28;20031;-78
2021/06/02 06:33:13;;;;;;;6.25;4.00;;;;;;;21.11;71.81;99851.97;5029741;28;20209;-75
2021/06/02 06:35:39;;;;;;;8.20;4.18;;;;;;;21.14;71.61;99848.41;5051718;28;20036;-75
2021/06/02 06:38:08;;;;;;;8.85;4.47;;;;;;;21.17;72.22;99853.31;5078152;28;20060;-77
2021/06/02 06:40:34;;;;;;;7.70;4.38;;;;;;;21.22;72.51;99854.16;5084018;28;20027;-79
2021/06/02 06:43:00;;;;;;;7.45;4.65;;;;;;;21.27;72.41;99854.63;5055629;28;20024;-77
2021/06/02 06:45:32;;;;;;;7.43;4.38;;;;;;;21.31;72.44;99844.22;5073851;28;20031;-77
2021/06/02 06:47:57;;;;;;;10.37;4.73;;;;;;;21.39;72.59;99847.97;5078238;28;20036;-77
2021/06/02 06:50:23;;;;;;;8.45;4.82;;;;;;;21.43;72.76;99854.47;5059193;28;20502;-77
2021/06/02 06:52:54;;;;;;;7.95;5.30;;;;;;;21.48;72.72;99854.16;5055651;28;20032;-77
2021/06/02 06:55:20;;;;;;;8.57;5.18;;;;;;;21.52;73.29;99851.38;5078912;28;20039;-77
2021/06/02 06:57:46;;;;;;;8.07;6.18;;;;;;;21.53;73.67;99856.63;5067432;28;20162;-77
2021/06/02 07:00:12;;;;;;;8.98;6.35;;;;;;;21.51;73.86;99855.41;5070055;28;20024;-77
2021/06/02 07:02:38;;;;;;;9.32;6.35;;;;;;;21.53;73.67;99862.25;5086257;28;20568;-78
2021/06/02 07:05:04;;;;;;;14.30;7.65;;;;;;;21.49;74.45;99861.41;5084112;28;20043;-77
2021/06/02 07:07:30;;;;;;;12.82;7.00;;;;;;;21.49;74.45;99857.78;5086301;28;20043;-77
2021/06/02 07:09:55;;;;;;;11.57;6.53;;;;;;;21.51;74.14;99863.88;5082136;28;20027;-77
2021/06/02 07:12:21;;;;;;;10.98;7.25;;;;;;;21.51;74.23;99861.03;5107015;28;20469;-77
2021/06/02 07:14:48;;;;;;;9.75;7.90;;;;;;;21.48;74.16;99873.94;5085422;28;20046;-78
2021/06/02 07:17:14;;;;;;;13.25;8.23;;;;;;;21.45;74.88;99869.00;5064771;28;20039;-78
2021/06/02 07:19:42;;;;;;;11.10;7.25;;;;;;;21.49;74.54;99886.03;5053180;28;20027;-78
2021/06/02 07:22:08;;;;;;;14.50;7.38;;;;;;;21.40;73.82;99887.13;5090451;28;20086;-78
2021/06/02 07:24:34;;;;;;;14.27;7.45;;;;;;;21.41;74.98;99885.13;5086759;28;20099;-78
2021/06/02 07:27:00;;;;;;;10.77;7.50;;;;;;;21.41;75.40;99896.41;5084201;28;20058;-79
2021/06/02 07:29:26;;;;;;;10.18;8.13;;;;;;;21.45;75.01;99887.97;5056917;28;20034;-79
2021/06/02 07:31:52;;;;;;;10.68;8.05;;;;;;;21.45;74.87;99902.09;5109397;28;20058;-79
2021/06/02 07:34:20;;;;;;;13.25;8.10;;;;;;;21.43;74.82;99896.84;5069969;28;20686;-79
2021/06/02 07:36:46;;;;;;;9.90;8.13;;;;;;;21.46;75.37;99900.94;5048867;28;20025;-78
2021/06/02 07:39:12;;;;;;;10.77;7.15;;;;;;;21.52;75.06;99911.50;5100331;28;20044;-79
2021/06/02 07:41:37;;;;;;;11.70;7.97;;;;;;;21.54;75.44;99909.13;5098302;28;20028;-78
2021/06/02 07:44:03;;;;;;;10.07;6.90;;;;;;;21.58;75.15;99914.81;5088734;28;20023;-80
2021/06/02 07:46:30;;;;;;;11.15;7.50;;;;;;;21.64;74.33;99904.78;5070801;28;20039;-79
2021/06/02 07:48:56;;;;;;;11.00;7.18;;;;;;;21.71;74.68;99899.25;5073153;28;20024;-79
2021/06/02 07:51:22;;;;;;;9.65;6.35;;;;;;;21.80;74.52;99904.59;5103015;28;20031;-79
2021/06/02 07:53:48;;;;;;;15.20;7.38;;;;;;;21.91;74.24;99908.34;5080407;28;20035;-79
2021/06/02 07:56:14;;;;;;;12.00;7.15;;;;;;;22.04;73.53;99909.72;5067914;28;20388;-78
2021/06/02 07:58:39;;;;;;;9.30;6.90;;;;;;;22.17;73.70;99903.78;5081139;28;20031;-79
2021/06/02 08:01:05;;;;;;;11.48;7.32;;;;;;;22.27;73.24;99912.44;5093257;28;20036;-79
2021/06/02 08:03:30;;;;;;;12.07;7.30;;;;;;;22.38;73.16;99915.38;5079798;28;20032;-79
2021/06/02 08:05:56;;;;;;;8.25;6.50;;;;;;;22.52;72.16;99920.38;5069907;28;20028;-79
2021/06/02 08:08:22;;;;;;;9.40;6.28;;;;;;;22.65;71.93;99920.88;5087240;28;20028;-79
2021/06/02 08:10:48;;;;;;;12.02;7.38;;;;;;;22.79;71.79;99926.69;5085170;28;20035;-79
2021/06/02 08:13:13;;;;;;;10.38;6.65;;;;;;;22.91;71.26;99917.88;5082881;28;20036;-79
2021/06/02 08:15:39;;;;;;;10.85;6.97;;;;;;;23.04;70.98;99923.25;5101641;28;20035;-79
2021/06/02 08:18:05;;;;;;;8.20;6.72;;;;;;;23.15;70.30;99921.31;5099912;28;20028;-79
2021/06/02 08:20:31;;;;;;;8.75;5.82;;;;;;;23.27;69.95;99929.50;5098979;28;20042;-79
2021/06/02 08:22:56;;;;;;;12.90;6.80;;;;;;;23.39;69.54;99934.81;5082916;28;20681;-79
2021/06/02 08:25:22;;;;;;;9.93;6.53;;;;;;;23.52;68.65;99920.34;5099085;28;20082;-79
2021/06/02 08:27:48;;;;;;;10.68;6.32;;;;;;;23.64;68.71;99923.63;5088795;28;20024;-78
2021/06/02 08:30:14;;;;;;;12.52;6.40;;;;;;;23.78;67.92;99933.44;5072039;28;20107;-78
2021/06/02 08:32:40;;;;;;;9.65;6.22;;;;;;;23.93;67.65;99926.66;5111146;28;20399;-79
2021/06/02 08:35:06;;;;;;;8.43;5.75;;;;;;;24.03;67.61;99933.56;5088326;28;20055;-79
2021/06/02 08:37:32;;;;;;;10.43;5.90;;;;;;;24.14;67.11;99928.72;5086215;28;20098;-79
2021/06/02 08:39:58;;;;;;;8.63;5.90;;;;;;;24.23;66.86;99931.19;5083603;28;20074;-80
2021/06/02 08:42:23;;;;;;;11.35;6.28;;;;;;;24.29;66.74;99930.41;5099198;28;20042;-81
2021/06/02 08:44:51;;;;;;;11.27;6.82;;;;;;;24.40;66.86;99938.91;5061020;28;20045;-79
2021/06/02 08:47:17;;;;;;;9.30;5.72;;;;;;;24.49;66.46;99938.59;5066875;28;20062;-79
2021/06/02 08:49:44;;;;;;;12.30;6.10;;;;;;;24.53;66.39;99934.53;5103258;28;20028;-79
2021/06/02 08:52:10;;;;;;;10.93;6.60;;;;;;;24.55;65.95;99945.50;5070712;28;20090;-78
2021/06/02 08:54:36;;;;;;;9.27;6.00;;;;;;;24.60;65.42;99944.25;5083663;28;20032;-78
2021/06/02 08:57:03;;;;;;;9.77;5.72;;;;;;;24.61;65.21;99938.19;5076009;28;20031;-77
2021/06/02 08:59:29;;;;;;;9.60;6.50;;;;;;;24.65;65.58;99953.19;5097325;28;20043;-77
2021/06/02 09:01:54;;;;;;;11.30;7.65;;;;;;;24.69;65.58;99956.88;5081514;28;20028;-75
2021/06/02 09:04:20;;;;;;;8.10;6.90;;;;;;;24.72;65.39;99958.09;5079833;28;20517;-77
2021/06/02 09:06:47;;;;;;;10.95;6.72;;;;;;;24.70;65.06;99958.47;5048252;28;20023;-76
2021/06/02 09:09:14;;;;;;;11.65;6.85;;;;;;;24.74;64.83;99952.81;5074451;28;20042;-75
2021/06/02 09:11:50;;;;;;;10.65;6.32;;;;;;;24.74;64.39;99961.34;5100018;28;20366;-73
2021/06/02 09:14:35;;;;;;;9.95;6.28;;;;;;;24.75;64.83;99963.75;5064652;28;20020;-73
2021/06/02 09:17:08;;;;;;;11.13;6.60;;;;;;;24.72;65.17;99958.09;5098735;28;20031;-73
2021/06/02 09:19:35;;;;;;;8.40;6.57;;;;;;;24.70;65.03;99971.88;5102698;28;20049;-73
2021/06/02 09:22:02;;;;;;;12.13;7.78;;;;;;;24.58;65.75;99970.22;5064707;28;20099;-73
2021/06/02 09:24:47;;;;;;;13.38;7.18;;;;;;;24.58;65.26;99967.38;5069806;28;20096;-73
2021/06/02 09:27:13;;;;;;;10.48;7.43;;;;;;;24.54;65.44;99966.56;5068298;28;20384;-73
2021/06/02 09:30:08;;;;;;;11.20;7.20;;;;;;;24.50;65.02;99980.75;5081526;28;20047;-73
2021/06/02 09:32:45;;;;;;;13.77;8.45;;;;;;;24.39;65.17;99973.41;5084520;28;20109;-73
2021/06/02 09:35:11;;;;;;;14.25;7.75;;;;;;;24.30;65.11;99985.13;5081050;28;20024;-73
2021/06/02 09:37:47;;;;;;;14.13;8.23;;;;;;;24.28;65.30;99990.38;5069940;28;20366;-73
2021/06/02 09:40:30;;;;;;;11.68;7.45;;;;;;;24.19;65.74;99993.59;5050250;28;20138;-73
2021/06/02 09:42:56;;;;;;;12.70;7.70;;;;;;;24.14;65.64;99988.31;5088597;28;20056;-73
2021/06/02 09:45:22;;;;;;;10.88;8.23;;;;;;;24.08;65.51;99992.75;5102589;28;20036;-73
2021/06/02 09:47:52;;;;;;;13.38;8.57;;;;;;;24.00;65.71;100002.44;5077903;28;20053;-73
2021/06/02 09:50:20;;;;;;;14.15;8.15;;;;;;;23.95;65.88;100000.78;5081368;28;20127;-73
2021/06/02 09:52:48;;;;;;;13.82;9.10;;;;;;;23.90;65.88;99997.50;5101866;28;20039;-73
2021/06/02 09:55:15;;;;;;;13.30;8.48;;;;;;;23.69;66.29;100004.66;5097073;28;20027;-73
2021/06/02 09:57:41;;;;;;;17.02;9.68;;;;;;;23.70;66.34;100019.63;5076744;28;20031;-73
2021/06/02 10:00:08;;;;;;;14.05;9.40;;;;;;;23.67;66.35;100014.75;5063168;28;20514;-73
2021/06/02 10:02:34;;;;;;;13.02;9.32;;;;;;;23.64;66.19;100019.19;5064081;28;20016;-72
2021/06/02 10:05:11;;;;;;;15.10;9.27;;;;;;;23.59;66.16;100019.56;5081601;28;20032;-73
2021/06/02 10:07:46;;;;;;;12.38;8.75;;;;;;;23.53;66.24;100029.66;5095922;28;20031;-73
2021/06/02 10:10:14;;;;;;;11.15;9.38;;;;;;;23.39;66.44;100025.50;5096243;28;20030;-73
2021/06/02 10:12:56;;;;;;;10.15;8.68;;;;;;;23.41;66.56;100028.75;5081456;28;20028;-73
2021/06/02 10:15:26;;;;;;;10.52;9.40;;;;;;;23.32;66.86;100041.66;5060698;28;20065;-73
2021/06/02 10:17:51;;;;;;;13.30;9.50;;;;;;;23.34;66.68;100034.34;5081681;28;20538;-72
2021/06/02 10:20:17;;;;;;;12.55;9.30;;;;;;;23.37;66.91;100050.59;5095144;28;20027;-72
2021/06/02 10:22:45;;;;;;;13.02;9.02;;;;;;;23.35;67.05;100052.19;5079817;28;20052;-72
2021/06/02 10:25:11;;;;;;;14.32;9.40;;;;;;;23.30;67.08;100050.53;5083117;28;20028;-72
2021/06/02 10:27:37;;;;;;;12.65;9.45;;;;;;;23.37;66.82;100050.59;5046427;28;20077;-72
2021/06/02 10:30:06;;;;;;;11.85;9.10;;;;;;;23.35;67.21;100055.84;5087308;28;20035;-72
2021/06/02 10:32:32;;;;;;;12.60;9.15;;;;;;;23.33;66.88;100048.94;5081590;28;20108;-72
2021/06/02 10:34:57;;;;;;;11.40;9.05;;;;;;;23.32;67.23;100055.81;5083431;28;20484;-72
2021/06/02 10:37:23;;;;;;;11.00;8.27;;;;;;;23.29;67.40;100048.91;5064537;28;20031;-72
2021/06/02 10:39:57;;;;;;;10.43;8.52;;;;;;;23.26;67.77;100057.34;5076906;28;20055;-73
2021/06/02 10:42:37;;;;;;;11.07;7.72;;;;;;;23.20;67.98;100059.72;5079414;28;20028;-72
2021/06/02 10:45:26;;;;;;;9.90;6.75;;;;;;;23.14;68.37;100061.31;5066543;28;20035;-72
2021/06/02 10:47:53;;;;;;;9.07;7.10;;;;;;;23.03;68.42;100063.22;5059696;28;20036;-72
2021/06/02 10:50:37;;;;;;;10.80;7.15;;;;;;;22.94;68.64;100067.16;5082810;28;20032;-72
2021/06/02 10:53:24;;;;;;;10.00;6.32;;;;;;;22.88;68.33;100068.72;5096047;28;20040;-72
2021/06/02 10:55:55;;;;;;;8.50;6.47;;;;;;;22.77;69.00;100066.97;5076144;28;20028;-72
2021/06/02 10:58:21;;;;;;;9.50;6.13;;;;;;;22.72;69.02;100079.44;5064316;28;20116;-72
2021/06/02 11:00:51;;;;;;;9.05;6.82;;;;;;;22.66;69.21;100083.84;5093529;28;20051;-72
2021/06/02 11:03:20;;;;;;;11.98;8.20;;;;;;;22.56;69.24;100087.34;5086680;28;20077;-72
2021/06/02 11:05:46;;;;;;;14.20;8.88;;;;;;;22.50;69.38;100084.84;5109044;28;20039;-72
2021/06/02 11:08:12;;;;;;;12.27;8.98;;;;;;;22.45;69.29;100078.72;5062222;28;20028;-73
2021/06/02 11:10:38;;;;;;;13.85;9.82;;;;;;;22.41;69.42;100084.34;5098604;28;20040;-72
2021/06/02 11:13:04;;;;;;;14.07;9.05;;;;;;;22.38;69.56;100085.13;5095546;28;20081;-73
2021/06/02 11:15:30;;;;;;;14.93;10.15;;;;;;;22.34;69.53;100089.91;5100681;28;20080;-73
2021/06/02 11:18:18;;;;;;;17.33;10.95;;;;;;;22.21;69.67;100091.34;5099706;28;20526;-73
2021/06/02 11:20:50;;;;;;;16.30;10.55;;;;;;;22.22;69.59;100095.81;5098815;28;20028;-72
2021/06/02 11:23:17;;;;;;;;;;;;;;;22.21;69.63;100102.66;5087296;28;20028;-73
2021/06/02 11:25:43;;;;;;;16.88;11.25;;;;;;;22.11;69.58;100108.94;5070910;28;20269;-72
2021/06/02 11:28:10;;;;;;;16.58;10.27;;;;;;;22.12;69.50;100110.56;5085738;28;20082;-72
2021/06/02 11:30:35;;;;;;;14.80;10.70;;;;;;;22.09;69.91;100110.16;5046487;28;20044;-72
2021/06/02 11:33:09;;;;;;;17.27;12.10;;;;;;;22.03;69.53;100113.69;5029055;28;20041;-72
2021/06/02 11:35:57;;;;;;;20.58;11.68;;;;;;;22.04;69.80;100110.47;5063124;28;20040;-72
2021/06/02 11:38:24;;;;;;;16.15;10.48;;;;;;;22.05;69.49;100112.09;5049051;28;20048;-72
2021/06/02 11:40:50;;;;;;;14.15;9.77;;;;;;;22.11;69.41;100114.59;5084160;28;20039;-72
2021/06/02 11:43:16;;;;;;;14.80;9.90;;;;;;;22.15;69.06;100121.13;5076056;28;20036;-73
2021/06/02 11:45:45;;;;;;;13.13;9.75;;;;;;;22.20;69.14;100124.47;5086832;28;20164;-73
2021/06/02 11:48:12;;;;;;;14.35;10.20;;;;;;;22.24;68.69;100128.16;5074152;28;20104;-72
2021/06/02 11:50:38;;;;;;;16.30;9.50;;;;;;;22.31;68.43;100127.44;5057950;28;20035;-73
2021/06/02 11:53:03;;;;;;;15.73;10.30;;;;;;;22.33;68.40;100121.41;5065107;28;20056;-73
2021/06/02 11:55:31;;;;;;;14.55;10.00;;;;;;;22.36;67.84;100129.94;5049746;28;20035;-72
2021/06/02 11:57:57;;;;;;;16.88;10.35;;;;;;;22.34;67.66;100129.50;5070659;28;20028;-73
2021/06/02 12:00:35;;;;;;;21.35;11.98;;;;;;;22.29;67.76;100141.16;5049531;28;20024;-73
2021/06/02 12:03:06;;;;;;;20.98;12.68;;;;;;;22.32;67.67;100143.22;5056007;28;20116;-72
2021/06/02 12:05:41;;;;;;;18.80;11.35;;;;;;;22.30;67.80;100145.63;5070180;28;20032;-72